Time;durP1;ratioP1;P1;durP2;ratioP2;P2;SDS_P1;SDS_P2;PMS_P1;PMS_P2;Temp;Humidity;BMP_temperature;BMP_pressure;BME280_temperature;BME280_humidity;BME280_pressure;Samples;Min_cycle;Max_cycle;Signal;HPM_P1;HPM_P2
2022/01/05 00:02:13;;;;;;;;;;;5.80;99.90;;;;;;5076237;28;19912;-81
2022/01/05 00:04:39;;;;;;;;;;;5.80;99.90;;;;;;5076220;28;20254;-83
2022/01/05 00:07:06;;;;;;;;;;;5.80;99.90;;;;;;5076129;28;19908;-78
2022/01/05 00:09:31;;;;;;;;;;;5.80;99.90;;;;;;5076124;28;20003;-83
2022/01/05 00:11:57;;;;;;;;;;;5.90;99.90;;;;;;5076105;28;19944;-79
2022/01/05 00:14:23;;;;;;;;;;;5.80;99.90;;;;;;5075644;28;19920;-84
2022/01/05 00:16:48;;;;;;;;;;;5.90;99.90;;;;;;5076080;28;20340;-83
2022/01/05 00:19:14;;;;;;;;;;;5.90;99.90;;;;;;5075917;28;20303;-79
2022/01/05 00:21:40;;;;;;;;;;;5.90;99.90;;;;;;5075078;28;19931;-82
2022/01/05 00:24:09;;;;;;;;;;;5.80;99.90;;;;;;5074208;28;20003;-81
2022/01/05 00:26:35;;;;;;;;;;;5.80;99.90;;;;;;5076018;28;19909;-79
2022/01/05 00:29:00;;;;;;;;;;;5.70;99.90;;;;;;5075935;28;20357;-80
2022/01/05 00:31:26;;;;;;;;;;;5.70;99.90;;;;;;5074467;28;19913;-81
2022/01/05 00:33:53;;;;;;;;;;;5.60;99.90;;;;;;5075649;28;20361;-78
2022/01/05 00:36:19;;;;;;;;;;;5.50;99.90;;;;;;5074344;28;19916;-81
2022/01/05 00:38:45;;;;;;;;;;;5.50;99.90;;;;;;5075908;28;19908;-78
2022/01/05 00:41:10;;;;;;;;;;;5.60;99.90;;;;;;5075541;28;19914;-79
2022/01/05 00:43:37;;;;;;;;;;;5.50;99.90;;;;;;5075770;28;19957;-81
2022/01/05 00:46:03;;;;;;;;;;;5.30;99.90;;;;;;5074287;28;19915;-78
2022/01/05 00:48:34;;;;;;;;;;;5.30;99.90;;;;;;5075615;28;19908;-81
2022/01/05 00:51:04;;;;;;;;;;;5.20;99.90;;;;;;5075629;28;20006;-79
2022/01/05 00:53:30;;;;;;;;;;;5.20;99.90;;;;;;5075553;28;20346;-77
2022/01/05 00:55:55;;;;;;;;;;;5.20;99.90;;;;;;5074083;28;19956;-78
2022/01/05 00:58:21;;;;;;;;;;;5.10;99.90;;;;;;5074067;28;20003;-78
2022/01/05 01:00:47;;;;;;;;;;;5.10;99.90;;;;;;5075062;28;20277;-79
2022/01/05 01:03:12;;;;;;;;;;;5.10;99.90;;;;;;5075070;28;19944;-81
2022/01/05 01:05:38;;;;;;;;;;;5.30;99.90;;;;;;5075006;28;19908;-82
2022/01/05 01:08:04;;;;;;;;;;;5.30;99.90;;;;;;5074933;28;19909;-83
2022/01/05 01:10:30;;;;;;;;;;;5.40;99.90;;;;;;5073523;28;20365;-82
2022/01/05 01:12:55;;;;;;;;;;;5.40;99.90;;;;;;5073335;28;20448;-83
2022/01/05 01:15:21;;;;;;;;;;;5.20;99.90;;;;;;5074816;28;19913;-82
2022/01/05 01:17:47;;;;;;;;;;;5.20;99.90;;;;;;5075052;28;19915;-83
2022/01/05 01:20:12;;;;;;;;;;;5.20;99.90;;;;;;5074810;28;19913;-82
2022/01/05 01:22:38;;;;;;;;;;;5.10;99.90;;;;;;5073372;28;19999;-83
2022/01/05 01:25:05;;;;;;;;;;;5.10;99.90;;;;;;5074645;28;20329;-78
2022/01/05 01:27:31;;;;;;;;;;;5.10;99.90;;;;;;5074738;28;20428;-82
2022/01/05 01:29:56;;;;;;;;;;;5.00;99.90;;;;;;5074489;28;19946;-83
2022/01/05 01:32:22;;;;;;;;;;;5.00;99.90;;;;;;5074681;28;19994;-80
2022/01/05 01:34:47;;;;;;;;;;;5.00;99.90;;;;;;5074256;28;19908;-80
2022/01/05 01:37:13;;;;;;;;;;;4.90;99.90;;;;;;5074314;28;19919;-80
2022/01/05 01:39:39;;;;;;;;;;;4.90;99.90;;;;;;5074177;28;20019;-80
2022/01/05 01:42:04;;;;;;;;;;;5.00;99.90;;;;;;5072964;28;19951;-81
2022/01/05 01:44:30;;;;;;;;;;;4.90;99.90;;;;;;5072968;28;20280;-82
2022/01/05 01:46:56;;;;;;;;;;;5.00;99.90;;;;;;5074272;28;19912;-80
2022/01/05 01:49:21;;;;;;;;;;;5.00;99.90;;;;;;5074152;28;19908;-81
2022/01/05 01:51:47;;;;;;;;;;;5.00;99.90;;;;;;5074068;28;19915;-84
2022/01/05 01:54:13;;;;;;;;;;;5.10;99.90;;;;;;5074365;28;19916;-79
2022/01/05 01:56:38;;;;;;;;;;;4.90;99.90;;;;;;5073983;28;19931;-80
2022/01/05 01:59:05;;;;;;;;;;;4.70;99.90;;;;;;5074014;28;19909;-83
2022/01/05 02:01:30;;;;;;;;;;;4.60;99.90;;;;;;5074148;28;19912;-83
2022/01/05 02:03:56;;;;;;;;;;;4.40;99.90;;;;;;5072569;28;20281;-83
2022/01/05 02:06:22;;;;;;;;;;;4.40;99.90;;;;;;5073970;28;19908;-80
2022/01/05 02:08:48;;;;;;;;;;;4.60;99.90;;;;;;5072452;28;19923;-83
2022/01/05 02:11:14;;;;;;;;;;;4.80;99.90;;;;;;5073851;28;19934;-82
2022/01/05 02:13:40;;;;;;;;;;;4.80;99.90;;;;;;5072268;28;19991;-80
2022/01/05 02:16:05;;;;;;;;;;;4.80;99.90;;;;;;5073992;28;19967;-83
2022/01/05 02:21:07;;;;;;;;;;;4.70;99.90;;;;;;5073837;28;20030;-83
2022/01/05 02:23:34;;;;;;;;;;;4.60;99.90;;;;;;5073663;28;19961;-82
2022/01/05 02:26:00;;;;;;;;;;;4.60;99.90;;;;;;5073563;28;19915;-83
2022/01/05 02:28:25;;;;;;;;;;;4.70;99.90;;;;;;5073739;28;19912;-83
2022/01/05 02:30:54;;;;;;;;;;;4.80;99.90;;;;;;5073529;28;20369;-84
2022/01/05 02:33:20;;;;;;;;;;;4.80;99.90;;;;;;5073568;28;19999;-81
2022/01/05 02:35:46;;;;;;;;;;;4.80;99.90;;;;;;5073738;28;19935;-81
2022/01/05 02:38:12;;;;;;;;;;;4.80;99.90;;;;;;5072160;28;20420;-80
2022/01/05 02:40:37;;;;;;;;;;;4.70;99.90;;;;;;5072039;28;20369;-83
2022/01/05 02:43:03;;;;;;;;;;;4.70;99.90;;;;;;5073466;28;20365;-82
2022/01/05 02:45:29;;;;;;;;;;;4.70;99.90;;;;;;5072798;28;19909;-80
2022/01/05 02:47:55;;;;;;;;;;;4.80;99.90;;;;;;5073374;28;19909;-82
2022/01/05 02:50:21;;;;;;;;;;;4.70;99.90;;;;;;5073467;28;19909;-81
2022/01/05 02:52:46;;;;;;;;;;;4.70;99.90;;;;;;5072006;28;20094;-83
2022/01/05 02:55:12;;;;;;;;;;;4.80;99.90;;;;;;5073323;28;19909;-82
2022/01/05 02:57:38;;;;;;;;;;;4.70;99.90;;;;;;5073241;28;20003;-81
2022/01/05 03:00:07;;;;;;;;;;;4.80;99.90;;;;;;5073194;28;20452;-80
2022/01/05 03:02:33;;;;;;;;;;;4.70;99.90;;;;;;5073377;28;19909;-82
2022/01/05 03:04:58;;;;;;;;;;;4.70;99.90;;;;;;5073196;28;19915;-80
2022/01/05 03:07:24;;;;;;;;;;;4.60;99.90;;;;;;5071812;28;19912;-80
2022/01/05 03:09:50;;;;;;;;;;;4.50;99.90;;;;;;5073328;28;20058;-82
2022/01/05 03:12:15;;;;;;;;;;;4.50;99.90;;;;;;5071892;28;19913;-82
2022/01/05 03:14:41;;;;;;;;;;;4.40;99.90;;;;;;5072978;28;20411;-80
2022/01/05 03:17:06;;;;;;;;;;;4.40;99.90;;;;;;5073104;28;19908;-82
2022/01/05 03:19:32;;;;;;;;;;;4.50;99.90;;;;;;5071678;28;19908;-82
2022/01/05 03:21:58;;;;;;;;;;;4.60;99.90;;;;;;5073013;28;20360;-82
2022/01/05 03:24:23;;;;;;;;;;;4.60;99.90;;;;;;5071782;28;19909;-79
2022/01/05 03:26:49;;;;;;;;;;;4.80;99.90;;;;;;5073145;28;20254;-82
2022/01/05 03:29:14;;;;;;;;;;;4.80;99.90;;;;;;5073068;28;20007;-84
2022/01/05 03:31:40;;;;;;;;;;;4.80;99.90;;;;;;5072995;28;19909;-80
2022/01/05 03:34:06;;;;;;;;;;;4.80;99.90;;;;;;5072885;28;20021;-83
2022/01/05 03:36:32;;;;;;;;;;;4.80;99.90;;;;;;5071617;28;19916;-82
2022/01/05 03:38:58;;;;;;;;;;;4.80;99.90;;;;;;5071639;28;19908;-81
2022/01/05 03:41:23;;;;;;;;;;;4.80;99.90;;;;;;5072876;28;20003;-82
2022/01/05 03:43:49;;;;;;;;;;;4.80;99.90;;;;;;5072897;28;20253;-82
2022/01/05 03:46:14;;;;;;;;;;;4.70;99.90;;;;;;5072838;28;19954;-81
2022/01/05 03:48:40;;;;;;;;;;;4.60;99.90;;;;;;5072804;28;20387;-86
2022/01/05 03:51:05;;;;;;;;;;;4.60;99.90;;;;;;5072974;28;19913;-82
2022/01/05 03:53:31;;;;;;;;;;;4.50;99.90;;;;;;5071395;28;19999;-80
2022/01/05 03:55:57;;;;;;;;;;;4.50;99.90;;;;;;5072569;28;19939;-84
2022/01/05 03:58:22;;;;;;;;;;;4.50;99.90;;;;;;5076667;28;19915;-84
2022/01/05 04:00:49;;;;;;;;;;;4.50;99.90;;;;;;5076127;28;19966;-81
2022/01/05 04:03:15;;;;;;;;;;;4.60;99.90;;;;;;5076378;28;19909;-81
2022/01/05 04:05:41;;;;;;;;;;;4.40;99.90;;;;;;5074835;28;20331;-83
2022/01/05 04:08:07;;;;;;;;;;;4.30;99.90;;;;;;5074815;28;19909;-80
2022/01/05 04:10:33;;;;;;;;;;;4.20;99.90;;;;;;5076217;28;20284;-84
2022/01/05 04:12:58;;;;;;;;;;;4.00;99.90;;;;;;5075899;28;19925;-83
2022/01/05 04:15:24;;;;;;;;;;;4.00;99.90;;;;;;5075987;28;20279;-82
2022/01/05 04:17:50;;;;;;;;;;;4.00;99.90;;;;;;5076349;28;20007;-79
2022/01/05 04:20:16;;;;;;;;;;;4.00;99.90;;;;;;5074514;28;20438;-82
2022/01/05 04:22:42;;;;;;;;;;;4.00;99.90;;;;;;5076126;28;19954;-83
2022/01/05 04:25:08;;;;;;;;;;;4.10;99.90;;;;;;5074503;28;20006;-84
2022/01/05 04:27:34;;;;;;;;;;;4.00;99.90;;;;;;5076004;28;20407;-82
2022/01/05 04:30:00;;;;;;;;;;;3.80;99.90;;;;;;5074422;28;19947;-79
2022/01/05 04:32:25;;;;;;;;;;;3.80;99.90;;;;;;5074373;28;20257;-84
2022/01/05 04:34:51;;;;;;;;;;;3.90;99.90;;;;;;5075598;28;19934;-83
2022/01/05 04:37:17;;;;;;;;;;;3.70;99.90;;;;;;5075568;28;19908;-82
2022/01/05 04:39:42;;;;;;;;;;;3.50;99.90;;;;;;5075401;28;19913;-83
2022/01/05 04:42:08;;;;;;;;;;;3.60;99.90;;;;;;5075451;28;19995;-82
2022/01/05 04:44:34;;;;;;;;;;;3.40;99.90;;;;;;5074126;28;19909;-82
2022/01/05 04:46:59;;;;;;;;;;;3.50;99.90;;;;;;5074090;28;19908;-82
2022/01/05 04:49:25;;;;;;;;;;;3.50;99.90;;;;;;5075557;28;19909;-80
2022/01/05 04:51:51;;;;;;;;;;;3.40;99.90;;;;;;5075449;28;19995;-82
2022/01/05 04:54:17;;;;;;;;;;;3.50;99.90;;;;;;5075236;28;20392;-83
2022/01/05 04:56:42;;;;;;;;;;;3.50;99.90;;;;;;5075203;28;19916;-83
2022/01/05 04:59:08;;;;;;;;;;;3.50;99.90;;;;;;5075217;28;20017;-82
2022/01/05 05:01:33;;;;;;;;;;;3.60;99.90;;;;;;5075073;28;19917;-83
2022/01/05 05:03:59;;;;;;;;;;;3.70;99.90;;;;;;5073739;28;20327;-81
2022/01/05 05:06:25;;;;;;;;;;;3.70;99.90;;;;;;5075252;28;20000;-80
2022/01/05 05:08:50;;;;;;;;;;;3.80;99.90;;;;;;5074425;28;20347;-82
2022/01/05 05:11:16;;;;;;;;;;;3.70;99.90;;;;;;5074747;28;19921;-82
2022/01/05 05:13:42;;;;;;;;;;;3.70;99.90;;;;;;5074823;28;19924;-83
2022/01/05 05:16:07;;;;;;;;;;;3.50;99.90;;;;;;5074795;28;20385;-80
2022/01/05 05:18:33;;;;;;;;;;;3.70;99.90;;;;;;5074726;28;19951;-83
2022/01/05 05:20:59;;;;;;;;;;;3.70;99.90;;;;;;5074634;28;19912;-81
2022/01/05 05:23:27;;;;;;;;;;;3.70;99.90;;;;;;5072979;28;20380;-81
2022/01/05 05:25:53;;;;;;;;;;;3.90;99.90;;;;;;5074827;28;19963;-84
2022/01/05 05:28:19;;;;;;;;;;;4.00;99.90;;;;;;5074817;28;19912;-84
2022/01/05 05:30:44;;;;;;;;;;;4.00;99.90;;;;;;5074584;28;19915;-84
2022/01/05 05:33:10;;;;;;;;;;;4.30;99.90;;;;;;5073425;28;19908;-86
2022/01/05 05:35:35;;;;;;;;;;;4.30;99.90;;;;;;5075016;28;20323;-80
2022/01/05 05:38:01;;;;;;;;;;;4.20;99.90;;;;;;5073158;28;19908;-81
2022/01/05 05:40:27;;;;;;;;;;;4.20;99.90;;;;;;5074361;28;19924;-85
2022/01/05 05:42:53;;;;;;;;;;;4.30;99.90;;;;;;5074273;28;20007;-85
2022/01/05 05:45:18;;;;;;;;;;;4.10;99.90;;;;;;5074321;28;19943;-79
2022/01/05 05:47:44;;;;;;;;;;;4.10;99.90;;;;;;5074534;28;19965;-83
2022/01/05 05:50:10;;;;;;;;;;;4.10;99.90;;;;;;5074196;28;20383;-82
2022/01/05 05:52:35;;;;;;;;;;;3.90;99.90;;;;;;5072787;28;19909;-79
2022/01/05 05:55:02;;;;;;;;;;;3.90;99.90;;;;;;5074112;28;19915;-82
2022/01/05 05:57:27;;;;;;;;;;;3.90;99.90;;;;;;5074060;28;19908;-84
2022/01/05 05:59:53;;;;;;;;;;;3.90;99.90;;;;;;5074071;28;20262;-80
2022/01/05 06:02:18;;;;;;;;;;;4.00;99.90;;;;;;5073921;28;19915;-81
2022/01/05 06:04:44;;;;;;;;;;;4.10;99.90;;;;;;5073953;28;20384;-82
2022/01/05 06:07:10;;;;;;;;;;;4.20;99.90;;;;;;5073864;28;19958;-81
2022/01/05 06:09:35;;;;;;;;;;;4.20;99.90;;;;;;5074002;28;19908;-81
2022/01/05 06:12:01;;;;;;;;;;;4.20;99.90;;;;;;5073875;28;20355;-79
2022/01/05 06:14:26;;;;;;;;;;;4.30;99.90;;;;;;5072037;28;19920;-82
2022/01/05 06:16:52;;;;;;;;;;;4.30;99.90;;;;;;5073680;28;19944;-84
2022/01/05 06:19:18;;;;;;;;;;;4.50;99.90;;;;;;5073342;28;19908;-85
2022/01/05 06:21:44;;;;;;;;;;;4.40;99.90;;;;;;5073293;28;19912;-85
2022/01/05 06:24:12;;;;;;;;;;;4.10;99.90;;;;;;5073712;28;19916;-80
2022/01/05 06:26:37;;;;;;;;;;;3.90;99.90;;;;;;5073626;28;19908;-82
2022/01/05 06:29:03;;;;;;;;;;;3.90;99.90;;;;;;5072224;28;19954;-82
2022/01/05 06:31:29;;;;;;;;;;;4.00;99.90;;;;;;5073263;28;19908;-80
2022/01/05 06:33:54;;;;;;;;;;;3.90;99.90;;;;;;5073751;28;19931;-84
2022/01/05 06:36:20;;;;;;;;;;;4.00;99.90;;;;;;5073463;28;19962;-79
2022/01/05 06:38:45;;;;;;;;;;;3.90;99.90;;;;;;5072238;28;19919;-84
2022/01/05 06:41:11;;;;;;;;;;;3.90;99.90;;;;;;5073297;28;19919;-84
2022/01/05 06:43:36;;;;;;;;;;;3.80;99.90;;;;;;5073407;28;19909;-81
2022/01/05 06:46:02;;;;;;;;;;;3.70;99.90;;;;;;5073353;28;19908;-80
2022/01/05 06:48:28;;;;;;;;;;;3.60;99.90;;;;;;5073453;28;19961;-82
2022/01/05 06:50:53;;;;;;;;;;;3.50;99.90;;;;;;5073340;28;19916;-84
2022/01/05 06:53:19;;;;;;;;;;;3.30;99.90;;;;;;5073334;28;19908;-81
2022/01/05 06:55:44;;;;;;;;;;;3.30;99.90;;;;;;5073261;28;20372;-83
2022/01/05 06:58:10;;;;;;;;;;;3.30;99.90;;;;;;5072092;28;19915;-80
2022/01/05 07:00:36;;;;;;;;;;;3.30;99.90;;;;;;5072987;28;20392;-81
2022/01/05 07:03:01;;;;;;;;;;;3.20;99.90;;;;;;5073247;28;19908;-82
2022/01/05 07:05:27;;;;;;;;;;;3.20;99.90;;;;;;5073470;28;19999;-81
2022/01/05 07:07:52;;;;;;;;;;;3.20;99.90;;;;;;5072057;28;20000;-82
2022/01/05 07:10:18;;;;;;;;;;;3.20;99.90;;;;;;5073416;28;20430;-80
2022/01/05 07:12:44;;;;;;;;;;;3.30;99.90;;;;;;5071554;28;20396;-82
2022/01/05 07:15:10;;;;;;;;;;;3.50;99.90;;;;;;5073179;28;19916;-81
2022/01/05 07:17:36;;;;;;;;;;;3.60;99.90;;;;;;5073038;28;20075;-82
2022/01/05 07:20:03;;;;;;;;;;;3.60;99.90;;;;;;5073264;28;20011;-81
2022/01/05 07:22:29;;;;;;;;;;;3.50;99.90;;;;;;5072988;28;19954;-80
2022/01/05 07:24:56;;;;;;;;;;;3.20;99.90;;;;;;5073002;28;19912;-85
2022/01/05 07:27:22;;;;;;;;;;;3.20;99.90;;;;;;5073043;28;19916;-80
2022/01/05 07:29:47;;;;;;;;;;;3.10;99.90;;;;;;5072980;28;19908;-79
2022/01/05 07:32:13;;;;;;;;;;;3.10;99.90;;;;;;5075055;28;19935;-81
2022/01/05 07:34:38;;;;;;;;;;;3.20;99.90;;;;;;5076693;28;19999;-82
2022/01/05 07:37:04;;;;;;;;;;;3.30;99.90;;;;;;5075385;28;19908;-82
2022/01/05 07:39:30;;;;;;;;;;;3.10;99.90;;;;;;5076608;28;19915;-82
2022/01/05 07:41:55;;;;;;;;;;;3.00;99.90;;;;;;5076533;28;20472;-84
2022/01/05 07:44:21;;;;;;;;;;;2.80;99.90;;;;;;5076566;28;19908;-83
2022/01/05 07:46:46;;;;;;;;;;;3.00;99.90;;;;;;5076561;28;19963;-80
2022/01/05 07:49:12;;;;;;;;;;;2.70;99.90;;;;;;5075196;28;19909;-84
2022/01/05 07:51:38;;;;;;;;;;;2.70;99.90;;;;;;5076423;28;19944;-83
2022/01/05 07:54:03;;;;;;;;;;;3.00;99.90;;;;;;5076423;28;19908;-82
2022/01/05 07:56:29;;;;;;;;;;;3.20;99.90;;;;;;5075073;28;19931;-79
2022/01/05 07:58:55;;;;;;;;;;;3.10;99.90;;;;;;5076461;28;20281;-84
2022/01/05 08:01:21;;;;;;;;;;;3.20;99.90;;;;;;5074891;28;20395;-80
2022/01/05 08:03:47;;;;;;;;;;;3.40;99.90;;;;;;5076224;28;19913;-82
2022/01/05 08:06:12;;;;;;;;;;;3.50;99.90;;;;;;5076472;28;19908;-84
2022/01/05 08:08:38;;;;;;;;;;;3.50;99.90;;;;;;5076099;28;19908;-78
2022/01/05 08:11:03;;;;;;;;;;;3.80;99.90;;;;;;5076055;28;20281;-82
2022/01/05 08:13:29;;;;;;;;;;;3.90;99.90;;;;;;5075931;28;20013;-79
2022/01/05 08:15:55;;;;;;;;;;;3.60;99.90;;;;;;5076223;28;19979;-84
2022/01/05 08:18:21;;;;;;;;;;;3.50;99.90;;;;;;5076265;28;19909;-80
2022/01/05 08:20:47;;;;;;;;;;;3.40;99.90;;;;;;5075928;28;20374;-84
2022/01/05 08:23:20;;;;;;;;;;;3.60;99.90;;;;;;5075844;28;19908;-82
2022/01/05 08:25:45;;;;;;;;;;;3.70;99.90;;;;;;5075793;28;19908;-83
2022/01/05 08:28:11;;;;;;;;;;;3.80;99.90;;;;;;5075775;28;20288;-84
2022/01/05 08:30:37;;;;;;;;;;;3.80;99.90;;;;;;5074413;28;19908;-84
2022/01/05 08:33:03;;;;;;;;;;;3.90;99.90;;;;;;5075676;28;19991;-84
2022/01/05 08:35:29;;;;;;;;;;;4.10;99.90;;;;;;5075513;28;19943;-84
2022/01/05 08:37:55;;;;;;;;;;;4.30;99.90;;;;;;5075598;28;19909;-82
2022/01/05 08:40:22;;;;;;;;;;;4.30;99.90;;;;;;5074032;28;19912;-83
2022/01/05 08:42:48;;;;;;;;;;;4.40;99.90;;;;;;5073326;28;20396;-82
2022/01/05 08:45:15;;;;;;;;;;;4.40;99.90;;;;;;5075340;28;20373;-82
2022/01/05 08:47:45;;;;;;;;;;;4.40;99.90;;;;;;5075493;28;20040;-83
2022/01/05 08:50:11;;;;;;;;;;;4.50;99.90;;;;;;5075592;28;19967;-82
2022/01/05 08:52:37;;;;;;;;;;;4.30;99.90;;;;;;5075695;28;19917;-85
2022/01/05 08:55:03;;;;;;;;;;;4.50;99.90;;;;;;5075274;28;20284;-80
2022/01/05 08:57:28;;;;;;;;;;;4.90;99.90;;;;;;5075236;28;19908;-80
2022/01/05 08:59:54;;;;;;;;;;;5.30;99.90;;;;;;5075102;28;20373;-84
2022/01/05 09:02:19;;;;;;;;;;;5.40;99.90;;;;;;5075422;28;19913;-79
2022/01/05 09:04:48;;;;;;;;;;;5.60;99.90;;;;;;5075300;28;20373;-78
2022/01/05 09:07:14;;;;;;;;;;;5.80;99.90;;;;;;5075007;28;19912;-83
2022/01/05 09:09:39;;;;;;;;;;;5.80;99.90;;;;;;5074914;28;19909;-81
2022/01/05 09:12:05;;;;;;;;;;;5.90;99.90;;;;;;5074976;28;19916;-80
2022/01/05 09:14:31;;;;;;;;;;;5.90;99.90;;;;;;5074482;28;19920;-80
2022/01/05 09:17:00;;;;;;;;;;;6.00;99.90;;;;;;5074852;28;19912;-79
2022/01/05 09:19:25;;;;;;;;;;;7.40;99.90;;;;;;5073442;28;19916;-80
2022/01/05 09:21:51;;;;;;;;;;;7.00;99.90;;;;;;5074925;28;19912;-84
2022/01/05 09:24:16;;;;;;;;;;;6.40;99.90;;;;;;5073389;28;19908;-81
2022/01/05 09:26:42;;;;;;;;;;;7.20;99.90;;;;;;5074755;28;19909;-82
2022/01/05 09:29:08;;;;;;;;;;;7.60;99.90;;;;;;5074594;28;20392;-81
2022/01/05 09:31:34;;;;;;;;;;;8.70;99.90;;;;;;5073162;28;19954;-78
2022/01/05 09:34:00;;;;;;;;;;;9.70;99.90;;;;;;5074670;28;19947;-83
2022/01/05 09:36:43;;;;;;;;;;;11.40;99.40;;;;;;5074602;28;19954;-81
2022/01/05 09:41:56;;;;;;;;;;;12.50;92.40;;;;;;5074247;28;19958;-84
2022/01/05 09:44:26;;;;;;;;;;;11.60;92.40;;;;;;5074306;28;20012;-82
2022/01/05 09:47:03;;;;;;;;;;;10.90;91.80;;;;;;5074332;28;19912;-81
2022/01/05 09:49:29;;;;;;;;;;;10.90;93.30;;;;;;5074333;28;19908;-80
2022/01/05 09:51:56;;;;;;;;;;;12.20;90.00;;;;;;5072818;28;19909;-80
2022/01/05 09:54:22;;;;;;;;;;;12.60;90.20;;;;;;5073894;28;19908;-80
2022/01/05 09:56:48;;;;;;;;;;;12.30;89.20;;;;;;5074218;28;20353;-81
2022/01/05 09:59:15;;;;;;;;;;;12.70;84.90;;;;;;5073985;28;20365;-81
2022/01/05 10:01:40;;;;;;;;;;;13.60;83.60;;;;;;5072648;28;19919;-81
2022/01/05 10:04:06;;;;;;;;;;;13.00;81.20;;;;;;5073998;28;19912;-80
2022/01/05 10:06:34;;;;;;;;;;;13.20;82.40;;;;;;5072554;28;19951;-81
2022/01/05 10:09:00;;;;;;;;;;;13.50;81.60;;;;;;5073807;28;19916;-85
2022/01/05 10:11:25;;;;;;;;;;;12.90;82.20;;;;;;5073825;28;20270;-85
2022/01/05 10:13:51;;;;;;;;;;;14.20;81.40;;;;;;5073570;28;20001;-79
2022/01/05 10:16:17;;;;;;;;;;;14.30;77.90;;;;;;5072441;28;19915;-82
2022/01/05 10:18:44;;;;;;;;;;;15.20;76.30;;;;;;5074919;28;19915;-81
2022/01/05 10:21:12;;;;;;;;;;;14.80;74.70;;;;;;5073896;28;19919;-80
2022/01/05 10:23:39;;;;;;;;;;;15.40;74.70;;;;;;5073609;28;19955;-81
2022/01/05 10:26:17;;;;;;;;;;;17.00;73.10;;;;;;5073491;28;19909;-81
2022/01/05 10:28:45;;;;;;;;;;;18.00;68.80;;;;;;5072236;28;19954;-79
2022/01/05 10:31:14;;;;;;;;;;;16.80;67.60;;;;;;5073552;28;19908;-78
2022/01/05 10:33:40;;;;;;;;;;;15.70;67.20;;;;;;5073641;28;19992;-83
2022/01/05 10:36:06;;;;;;;;;;;14.30;70.30;;;;;;5073494;28;20357;-80
2022/01/05 10:38:31;;;;;;;;;;;15.40;72.00;;;;;;5073422;28;19908;-78
2022/01/05 10:40:57;;;;;;;;;;;16.20;70.60;;;;;;5071990;28;19913;-82
2022/01/05 10:43:22;;;;;;;;;;;17.40;66.70;;;;;;5073437;28;19947;-82
2022/01/05 10:45:51;;;;;;;;;;;17.40;65.50;;;;;;5072129;28;20330;-83
2022/01/05 10:48:20;;;;;;;;;;;17.60;66.10;;;;;;5073387;28;19913;-83
2022/01/05 10:50:50;;;;;;;;;;;16.30;66.10;;;;;;5072013;28;19997;-81
2022/01/05 10:53:19;;;;;;;;;;;14.90;68.90;;;;;;5073340;28;19978;-80
2022/01/05 10:55:46;;;;;;;;;;;13.60;73.40;;;;;;5073395;28;19909;-83
2022/01/05 10:58:12;;;;;;;;;;;13.20;77.00;;;;;;5073344;28;19912;-80
2022/01/05 11:00:39;;;;;;;;;;;15.40;74.60;;;;;;5071962;28;19908;-79
2022/01/05 11:03:20;;;;;;;;;;;14.90;72.00;;;;;;5073270;28;20276;-82
2022/01/05 11:06:03;;;;;;;;;;;12.90;75.30;;;;;;5073414;28;19943;-82
2022/01/05 11:08:30;;;;;;;;;;;13.40;76.20;;;;;;5077330;28;19916;-80
2022/01/05 11:10:56;;;;;;;;;;;13.10;78.40;;;;;;5075906;28;19920;-80
2022/01/05 11:13:21;;;;;;;;;;;13.80;77.00;;;;;;5075784;28;19920;-81
2022/01/05 11:15:47;;;;;;;;;;;13.30;76.80;;;;;;5077639;28;19951;-81
2022/01/05 11:18:14;;;;;;;;;;;13.70;76.60;;;;;;5077450;28;19908;-81
2022/01/05 11:20:46;;;;;;;;;;;12.60;78.60;;;;;;5075793;28;19908;-82
2022/01/05 11:23:12;;;;;;;;;;;12.20;79.80;;;;;;5075738;28;20393;-81
2022/01/05 11:25:38;;;;;;;;;;;13.60;79.50;;;;;;5076980;28;19994;-80
2022/01/05 11:28:05;;;;;;;;;;;15.70;73.00;;;;;;5077321;28;20312;-79
2022/01/05 11:30:31;;;;;;;;;;;16.70;66.70;;;;;;5075475;28;19912;-79
2022/01/05 11:32:57;;;;;;;;;;;19.30;64.00;;;;;;5076840;28;19913;-80
2022/01/05 11:35:23;;;;;;;;;;;21.40;61.90;;;;;;5076801;28;20418;-78
2022/01/05 11:37:49;;;;;;;;;;;20.00;56.40;;;;;;5076702;28;19908;-82
2022/01/05 11:40:16;;;;;;;;;;;18.50;60.60;;;;;;5077069;28;20008;-80
2022/01/05 11:42:42;;;;;;;;;;;15.60;65.40;;;;;;5075360;28;19915;-84
2022/01/05 11:45:08;;;;;;;;;;;18.80;66.30;;;;;;5076581;28;19908;-81
2022/01/05 11:47:38;;;;;;;;;;;22.60;58.30;;;;;;5076565;28;19951;-81
2022/01/05 11:50:12;;;;;;;;;;;24.80;53.20;;;;;;5076810;28;19919;-79
2022/01/05 11:53:00;;;;;;;;;;;25.70;51.80;;;;;;5076433;28;19916;-79
2022/01/05 11:55:27;;;;;;;;;;;27.50;48.40;;;;;;5076470;28;20012;-80
2022/01/05 11:58:11;;;;;;;;;;;28.30;45.60;;;;;;5075060;28;20369;-79
2022/01/05 12:00:36;;;;;;;;;;;28.20;44.80;;;;;;5074941;28;19999;-82
2022/01/05 12:03:02;;;;;;;;;;;29.20;43.70;;;;;;5076601;28;20431;-78
2022/01/05 12:05:28;;;;;;;;;;;29.30;43.20;;;;;;5076253;28;20004;-81
2022/01/05 12:07:55;;;;;;;;;;;30.70;42.90;;;;;;5074910;28;19952;-83
2022/01/05 12:10:22;;;;;;;;;;;29.10;43.20;;;;;;5076037;28;19973;-82
2022/01/05 12:13:07;;;;;;;;;;;29.40;42.90;;;;;;5076085;28;19912;-80
2022/01/05 12:15:38;;;;;;;;;;;29.50;42.40;;;;;;5074526;28;19916;-78
2022/01/05 12:18:05;;;;;;;;;;;29.10;42.90;;;;;;5074645;28;19908;-78
2022/01/05 12:20:39;;;;;;;;;;;27.70;41.40;;;;;;5074652;28;19916;-83
2022/01/05 12:23:24;;;;;;;;;;;30.20;41.90;;;;;;5076035;28;19909;-81
2022/01/05 12:26:07;;;;;;;;;;;32.80;38.90;;;;;;5074575;28;19912;-82
2022/01/05 12:28:32;;;;;;;;;;;33.30;39.30;;;;;;5074252;28;19915;-81
2022/01/05 12:30:58;;;;;;;;;;;30.60;39.40;;;;;;5075741;28;19913;-81
2022/01/05 12:33:25;;;;;;;;;;;28.60;41.70;;;;;;5075790;28;19909;-84
2022/01/05 12:35:52;;;;;;;;;;;25.70;43.10;;;;;;5075682;28;19908;-79
2022/01/05 12:38:36;;;;;;;;;;;22.90;47.00;;;;;;5074315;28;19958;-81
2022/01/05 12:41:25;;;;;;;;;;;21.20;49.80;;;;;;5075515;28;19908;-82
2022/01/05 12:43:51;;;;;;;;;;;18.70;53.50;;;;;;5067240;28;20007;-81
2022/01/05 12:46:43;;;;;;;;;;;17.00;58.10;;;;;;5075533;28;19912;-80
2022/01/05 12:49:10;;;;;;;;;;;16.20;60.00;;;;;;5072391;28;19912;-79
2022/01/05 12:51:39;;;;;;;;;;;15.20;62.70;;;;;;5073999;28;19919;-80
2022/01/05 12:54:09;;;;;;;;;;;14.70;65.50;;;;;;5074092;28;19908;-83
2022/01/05 12:56:35;;;;;;;;;;;14.30;66.60;;;;;;5075734;28;19930;-81
2022/01/05 12:59:01;;;;;;;;;;;14.30;66.40;;;;;;5075470;28;20365;-80
2022/01/05 13:01:28;;;;;;;;;;;14.60;66.10;;;;;;5074040;28;19916;-83
2022/01/05 13:03:54;;;;;;;;;;;14.30;66.60;;;;;;5075413;28;19912;-79
2022/01/05 13:06:20;;;;;;;;;;;14.10;67.50;;;;;;5075561;28;19909;-80
2022/01/05 13:08:48;;;;;;;;;;;13.90;69.10;;;;;;5075506;28;19908;-81
2022/01/05 13:11:14;;;;;;;;;;;14.00;69.90;;;;;;5075254;28;19916;-81
2022/01/05 13:13:42;;;;;;;;;;;13.60;70.70;;;;;;5075255;28;19995;-81
2022/01/05 13:16:08;;;;;;;;;;;13.50;71.30;;;;;;5074330;28;19915;-82
2022/01/05 13:18:34;;;;;;;;;;;13.20;72.30;;;;;;5073946;28;19958;-77
2022/01/05 13:21:00;;;;;;;;;;;12.90;73.20;;;;;;5075594;28;19909;-79
2022/01/05 13:23:25;;;;;;;;;;;12.50;74.50;;;;;;5073672;28;19957;-80
2022/01/05 13:25:51;;;;;;;;;;;12.10;76.70;;;;;;5074678;28;19908;-80
2022/01/05 13:28:16;;;;;;;;;;;11.90;76.20;;;;;;5074638;28;19912;-81
2022/01/05 13:30:44;;;;;;;;;;;11.70;77.60;;;;;;5074078;28;19912;-81
2022/01/05 13:33:14;;;;;;;;;;;11.20;78.40;;;;;;5073304;28;20289;-80
2022/01/05 13:35:41;;;;;;;;;;;10.80;80.00;;;;;;5072913;28;19908;-85
2022/01/05 13:38:12;;;;;;;;;;;10.50;82.60;;;;;;5074387;28;19913;-81
2022/01/05 13:40:42;;;;;;;;;;;10.30;85.00;;;;;;5072942;28;20281;-79
2022/01/05 13:43:09;;;;;;;;;;;10.40;85.50;;;;;;5074350;28;19909;-79
2022/01/05 13:45:45;;;;;;;;;;;10.10;85.60;;;;;;5074408;28;19908;-79
2022/01/05 13:48:15;;;;;;;;;;;10.20;87.60;;;;;;5072711;28;19970;-79
2022/01/05 13:50:42;;;;;;;;;;;9.90;89.60;;;;;;5072867;28;20011;-82
2022/01/05 13:53:11;;;;;;;;;;;10.00;90.90;;;;;;5074111;28;19930;-80
2022/01/05 13:55:38;;;;;;;;;;;10.00;90.60;;;;;;5074413;28;19958;-80
2022/01/05 13:58:17;;;;;;;;;;;10.50;90.20;;;;;;5074032;28;19909;-82
2022/01/05 14:00:45;;;;;;;;;;;10.70;90.00;;;;;;5074041;28;19908;-80
2022/01/05 14:03:24;;;;;;;;;;;11.00;90.00;;;;;;5074016;28;19915;-78
2022/01/05 14:05:50;;;;;;;;;;;11.20;89.50;;;;;;5074037;28;19908;-82
2022/01/05 14:08:16;;;;;;;;;;;10.90;90.10;;;;;;5074065;28;19909;-78
2022/01/05 14:10:41;;;;;;;;;;;10.60;90.20;;;;;;5073782;28;19912;-79
2022/01/05 14:13:07;;;;;;;;;;;10.60;90.70;;;;;;5073950;28;20300;-81
2022/01/05 14:15:34;;;;;;;;;;;10.80;90.60;;;;;;5074075;28;20277;-80
2022/01/05 14:18:02;;;;;;;;;;;11.20;89.30;;;;;;5072521;28;19916;-82
2022/01/05 14:20:28;;;;;;;;;;;11.40;88.90;;;;;;5072476;28;19920;-77
2022/01/05 14:23:04;;;;;;;;;;;11.60;86.20;;;;;;5072366;28;20284;-80
2022/01/05 14:25:31;;;;;;;;;;;11.40;86.20;;;;;;5072103;28;20049;-83
2022/01/05 14:27:57;;;;;;;;;;;11.40;86.90;;;;;;5073668;28;19913;-81
2022/01/05 14:30:28;;;;;;;;;;;11.40;86.10;;;;;;5073573;28;20046;-79